createdAt,value
2018-04-15T00:06:08.667Z,22.50
2018-04-15T00:08:34.806Z,22.43
2018-04-15T00:11:00.938Z,22.50
2018-04-15T00:13:27.083Z,20.43
2018-04-15T00:15:53.955Z,20.50
2018-04-15T00:18:20.694Z,20.20
2018-04-15T00:20:47.212Z,18.60
2018-04-15T00:23:13.812Z,19.10
2018-04-15T00:25:40.935Z,16.90
2018-04-15T00:28:07.551Z,17.30
2018-04-15T00:30:34.106Z,19.47
2018-04-15T00:33:01.085Z,16.57
2018-04-15T00:35:28.373Z,17.03
2018-04-15T00:37:55.828Z,17.63
2018-04-15T00:40:22.511Z,17.63
2018-04-15T00:42:49.737Z,18.90
2018-04-15T00:45:16.461Z,17.67
2018-04-15T00:47:43.311Z,16.50
2018-04-15T00:50:10.598Z,19.20
2018-04-15T00:52:37.639Z,14.37
2018-04-15T00:55:05.471Z,14.20
2018-04-15T00:57:32.096Z,11.63
2018-04-15T00:59:59.587Z,13.67
2018-04-15T01:02:27.980Z,12.30
2018-04-15T01:04:59.802Z,12.67
2018-04-15T01:07:28.911Z,13.23
2018-04-15T01:09:59.430Z,10.50
2018-04-15T01:12:33.077Z,14.10
2018-04-15T01:15:05.061Z,12.83
2018-04-15T01:17:51.719Z,12.90
2018-04-15T01:20:33.777Z,14.57
2018-04-15T01:23:04.664Z,13.03
2018-04-15T01:25:34.682Z,13.73
2018-04-15T01:28:03.657Z,15.67
2018-04-15T01:30:33.652Z,13.80
2018-04-15T01:33:02.570Z,15.30
2018-04-15T01:35:32.595Z,15.10
2018-04-15T01:38:02.857Z,14.60
2018-04-15T01:40:32.600Z,14.53
2018-04-15T01:42:59.535Z,14.23
2018-04-15T01:45:27.589Z,13.90
2018-04-15T01:47:54.547Z,15.40
2018-04-15T01:50:21.248Z,14.07
2018-04-15T01:52:47.552Z,16.47
2018-04-15T01:55:13.850Z,16.47
2018-04-15T01:57:40.059Z,14.67
2018-04-15T02:00:06.297Z,13.80
2018-04-15T02:02:32.611Z,15.10
2018-04-15T02:04:58.863Z,14.60
2018-04-15T02:07:25.388Z,15.33
2018-04-15T02:09:51.575Z,15.37
2018-04-15T02:12:18.490Z,14.30
2018-04-15T02:14:44.690Z,14.17
2018-04-15T02:17:10.953Z,13.80
2018-04-15T02:19:37.179Z,14.20
2018-04-15T02:22:04.132Z,13.67
2018-04-15T02:24:31.042Z,14.30
2018-04-15T02:26:57.192Z,14.00
2018-04-15T02:29:24.174Z,15.93
2018-04-15T02:31:50.374Z,19.17
2018-04-15T02:34:17.284Z,18.33
2018-04-15T02:36:43.530Z,18.63
2018-04-15T02:39:09.825Z,19.80
2018-04-15T02:41:36.078Z,20.60
2018-04-15T02:44:02.345Z,18.50
2018-04-15T02:46:29.262Z,22.00
2018-04-15T02:48:55.606Z,20.07
2018-04-15T02:51:22.580Z,19.10
2018-04-15T02:53:48.759Z,23.23
2018-04-15T02:56:14.985Z,20.20
2018-04-15T02:58:41.163Z,21.50
2018-04-15T03:01:07.371Z,21.37
2018-04-15T03:03:34.291Z,23.37
2018-04-15T03:06:00.491Z,25.57
2018-04-15T03:08:26.703Z,24.80
2018-04-15T03:10:52.930Z,27.17
2018-04-15T03:13:19.156Z,27.37
2018-04-15T03:15:45.334Z,30.70
2018-04-15T03:18:11.476Z,28.90
2018-04-15T03:20:37.693Z,34.60
2018-04-15T03:23:03.913Z,31.67
2018-04-15T03:25:30.157Z,34.00
2018-04-15T03:27:56.389Z,32.20
2018-04-15T03:30:22.602Z,33.87
2018-04-15T03:32:48.781Z,34.17
2018-04-15T03:35:15.223Z,34.97
2018-04-15T03:37:41.395Z,33.30
2018-04-15T03:40:07.661Z,33.17
2018-04-15T03:42:33.898Z,34.40
2018-04-15T03:45:00.088Z,31.37
2018-04-15T03:47:26.323Z,32.70
2018-04-15T03:49:52.523Z,34.27
2018-04-15T03:52:18.712Z,34.60
2018-04-15T03:54:44.938Z,33.20
2018-04-15T03:57:11.228Z,33.63
2018-04-15T03:59:37.419Z,31.57
2018-04-15T04:02:03.922Z,31.50
2018-04-15T04:04:30.177Z,31.73
2018-04-15T04:06:56.358Z,31.77
2018-04-15T04:09:22.537Z,33.00
2018-04-15T04:11:48.747Z,32.07
2018-04-15T04:14:15.005Z,36.10
2018-04-15T04:16:41.246Z,37.50
2018-04-15T04:19:19.579Z,37.77
2018-04-15T04:21:57.937Z,36.43
2018-04-15T04:24:36.358Z,36.10
2018-04-15T04:27:02.603Z,39.67
2018-04-15T04:29:28.811Z,38.27
2018-04-15T04:31:55.061Z,36.47
2018-04-15T04:34:21.288Z,37.60
2018-04-15T04:36:47.483Z,38.13
2018-04-15T04:39:13.726Z,37.07
2018-04-15T04:41:39.859Z,35.03
2018-04-15T04:44:06.042Z,34.57
2018-04-15T04:46:32.214Z,33.57
2018-04-15T04:48:58.351Z,36.13
2018-04-15T04:51:24.493Z,33.73
2018-04-15T04:53:50.606Z,30.57
2018-04-15T04:56:16.732Z,29.60
2018-04-15T04:58:42.855Z,30.90
2018-04-15T05:01:09.029Z,29.30
2018-04-15T05:03:35.221Z,29.93
2018-04-15T05:06:01.347Z,31.70
2018-04-15T05:08:27.496Z,30.43
2018-04-15T05:10:53.672Z,27.53
2018-04-15T05:13:19.818Z,27.90
2018-04-15T05:15:46.009Z,26.77
2018-04-15T05:18:12.134Z,24.93
2018-04-15T05:20:38.263Z,24.07
2018-04-15T05:23:04.402Z,27.00
2018-04-15T05:25:30.510Z,25.20
2018-04-15T05:27:56.611Z,23.80
2018-04-15T05:30:22.786Z,22.53
2018-04-15T05:32:48.932Z,24.50
2018-04-15T05:35:15.074Z,23.87
2018-04-15T05:37:41.248Z,21.40
2018-04-15T05:40:07.446Z,21.73
2018-04-15T05:42:33.613Z,22.27
2018-04-15T05:45:00.514Z,22.00
2018-04-15T05:47:26.714Z,18.87
2018-04-15T05:49:53.598Z,20.80
2018-04-15T05:52:19.757Z,21.80
2018-04-15T05:54:46.680Z,21.57
2018-04-15T05:57:12.844Z,19.77
2018-04-15T05:59:38.996Z,20.83
2018-04-15T06:02:05.139Z,21.10
2018-04-15T06:04:31.284Z,20.40
2018-04-15T06:06:57.461Z,19.90
2018-04-15T06:09:23.614Z,19.13
2018-04-15T06:11:49.754Z,19.33
2018-04-15T06:14:15.874Z,18.77
2018-04-15T06:16:42.083Z,19.40
2018-04-15T06:19:08.247Z,17.17
2018-04-15T06:21:34.491Z,19.20
2018-04-15T06:24:01.386Z,19.80
2018-04-15T06:26:27.623Z,19.10
2018-04-15T06:28:53.775Z,19.83
2018-04-15T06:31:19.922Z,18.57
2018-04-15T06:33:46.244Z,18.50
2018-04-15T06:36:12.522Z,16.73
2018-04-15T06:38:38.749Z,15.60
2018-04-15T06:41:04.992Z,15.70
2018-04-15T06:43:31.177Z,16.50
2018-04-15T06:45:57.746Z,15.07
2018-04-15T06:48:26.131Z,14.80
2018-04-15T06:50:54.706Z,15.00
2018-04-15T06:53:22.850Z,12.93
2018-04-15T06:55:49.483Z,12.40
2018-04-15T06:58:16.703Z,12.50
2018-04-15T07:00:43.541Z,11.23
2018-04-15T07:03:10.002Z,11.67
2018-04-15T07:05:36.771Z,12.60
2018-04-15T07:08:03.409Z,12.70
2018-04-15T07:10:29.709Z,11.87
2018-04-15T07:12:56.859Z,11.00
2018-04-15T07:15:23.564Z,11.70
2018-04-15T07:17:49.896Z,11.43
2018-04-15T07:20:16.330Z,11.67
2018-04-15T07:22:43.487Z,9.27
2018-04-15T07:25:16.250Z,8.40
2018-04-15T07:27:43.132Z,8.30
2018-04-15T07:30:09.909Z,6.50
2018-04-15T07:32:36.277Z,7.60
2018-04-15T07:35:03.163Z,6.07
2018-04-15T07:37:30.868Z,7.77
2018-04-15T07:40:03.660Z,6.80
2018-04-15T07:42:31.731Z,5.20
2018-04-15T07:45:04.221Z,6.37
2018-04-15T07:47:34.683Z,5.27
2018-04-15T08:02:32.869Z,3.30
2018-04-15T08:04:59.395Z,2.67
2018-04-15T08:07:25.915Z,3.90
2018-04-15T08:10:01.977Z,2.90
2018-04-15T08:12:28.297Z,3.37
2018-04-15T08:15:13.012Z,3.30
2018-04-15T08:17:39.502Z,2.00
2018-04-15T08:20:07.806Z,2.70
2018-04-15T08:22:34.458Z,3.07
2018-04-15T08:55:23.289Z,1.70
2018-04-15T08:57:55.019Z,1.17
2018-04-15T09:02:57.350Z,1.90
2018-04-15T09:05:27.575Z,2.10
2018-04-15T09:07:56.215Z,1.93
2018-04-15T09:10:28.501Z,1.60
2018-04-15T09:12:56.749Z,1.43
2018-04-15T09:15:24.688Z,1.77
2018-04-15T10:03:38.704Z,1.00
2018-04-15T10:06:05.958Z,1.40
2018-04-15T10:08:33.784Z,1.70
2018-04-15T10:11:00.869Z,1.43
2018-04-15T10:13:27.358Z,1.10
2018-04-15T10:15:57.990Z,1.33
2018-04-15T10:18:26.113Z,1.70
2018-04-15T10:21:00.167Z,1.13
2018-04-15T10:23:26.717Z,1.50
2018-04-15T10:51:25.322Z,1.20
2018-04-15T10:54:01.919Z,1.13
2018-04-15T10:56:33.224Z,1.37
2018-04-15T10:59:06.783Z,1.20
2018-04-15T11:01:35.565Z,1.60
2018-04-15T11:07:24.254Z,1.70
2018-04-15T11:09:53.538Z,1.10
2018-04-15T11:12:26.418Z,1.20
2018-04-15T11:14:57.351Z,1.07
2018-04-15T11:17:30.930Z,1.07
2018-04-15T11:19:57.833Z,1.50
2018-04-15T11:22:26.854Z,1.13
2018-04-15T11:27:34.503Z,1.10
2018-04-15T11:30:03.948Z,1.10
2018-04-15T11:32:37.432Z,1.70
2018-04-15T11:35:06.538Z,1.30
2018-04-15T11:37:32.697Z,1.13
2018-04-15T11:42:42.620Z,1.20
2018-04-15T11:45:11.510Z,1.10
2018-04-15T11:47:39.487Z,1.10
2018-04-15T11:50:11.350Z,1.40
2018-04-15T11:52:41.542Z,1.43
2018-04-15T11:55:10.615Z,1.10
2018-04-15T11:57:36.870Z,0.80
2018-04-15T12:00:03.002Z,1.30
2018-04-15T12:02:29.255Z,1.10
2018-04-15T12:04:55.356Z,1.70
2018-04-15T12:07:22.283Z,1.00
2018-04-15T12:09:48.790Z,0.90
2018-04-15T12:12:14.957Z,1.37
2018-04-15T12:14:45.526Z,1.17
2018-04-15T12:17:21.756Z,1.17
2018-04-15T12:19:54.900Z,1.20
2018-04-15T12:22:24.379Z,1.20
2018-04-15T12:24:51.031Z,1.00
2018-04-15T12:27:17.846Z,0.90
2018-04-15T12:29:46.247Z,1.00
2018-04-15T12:32:15.383Z,1.20
2018-04-15T12:34:48.953Z,1.20
2018-04-15T12:37:21.118Z,1.17
2018-04-15T12:39:48.628Z,1.30
2018-04-15T12:42:17.806Z,1.40
2018-04-15T12:44:47.953Z,1.20
2018-04-15T12:47:14.623Z,1.10
2018-04-15T12:49:42.586Z,1.10
2018-04-15T12:52:19.759Z,1.30
2018-04-15T12:54:46.182Z,1.10
2018-04-15T12:57:13.706Z,0.70
2018-04-15T12:59:40.904Z,0.97
2018-04-15T13:02:07.851Z,1.27
2018-04-15T13:04:34.049Z,1.20
2018-04-15T13:07:00.162Z,1.10
2018-04-15T13:24:06.741Z,1.03
2018-04-15T13:26:44.993Z,1.30
2018-04-15T13:29:35.423Z,1.07
2018-04-15T13:32:04.796Z,1.03
2018-04-15T13:34:32.994Z,1.20
2018-04-15T13:37:00.383Z,1.00
2018-04-15T15:08:31.142Z,1.47
2018-04-15T15:11:01.789Z,1.17
2018-04-15T15:13:29.168Z,1.77
2018-04-15T15:15:59.945Z,1.30
2018-04-15T15:18:34.367Z,0.90
2018-04-15T15:21:04.155Z,2.00
2018-04-15T15:26:23.436Z,1.17
2018-04-15T15:29:04.246Z,1.20
2018-04-15T15:31:37.346Z,1.30
2018-04-15T15:34:12.803Z,1.10
2018-04-15T15:36:40.095Z,1.60
2018-04-15T15:39:08.137Z,1.10
2018-04-15T15:41:34.512Z,1.13
2018-04-15T15:44:01.644Z,1.43
2018-04-15T15:46:28.197Z,2.10
2018-04-15T15:48:54.946Z,1.73
2018-04-15T15:51:21.636Z,1.33
2018-04-15T15:53:48.514Z,1.30
2018-04-15T15:56:15.869Z,0.90
2018-04-15T15:58:42.033Z,1.10
2018-04-15T16:01:08.259Z,4.67
2018-04-15T16:03:34.747Z,1.40
2018-04-15T16:06:00.920Z,1.40
2018-04-15T16:08:28.334Z,1.20
2018-04-15T16:10:54.488Z,2.00
2018-04-15T16:13:20.656Z,2.20
2018-04-15T16:15:46.894Z,1.50
2018-04-15T16:18:13.218Z,1.60
2018-04-15T16:20:39.400Z,1.53
2018-04-15T16:23:11.515Z,1.77
2018-04-15T16:26:05.020Z,1.10
2018-04-15T16:28:33.568Z,1.60
2018-04-15T16:31:00.997Z,2.17
2018-04-15T16:33:27.504Z,1.37
2018-04-15T16:35:54.932Z,1.50
2018-04-15T16:38:25.243Z,1.40
2018-04-15T16:40:53.822Z,2.00
2018-04-15T16:43:34.780Z,1.50
2018-04-15T16:46:02.121Z,1.87
2018-04-15T16:48:29.413Z,1.23
2018-04-15T16:51:17.088Z,1.60
2018-04-15T18:47:41.216Z,2.40
2018-04-15T18:50:07.732Z,2.50
2018-04-15T18:52:34.013Z,2.30
2018-04-15T18:55:00.275Z,2.67
2018-04-15T18:57:26.451Z,3.40
2018-04-15T18:59:53.373Z,3.00
2018-04-15T19:02:20.266Z,2.60
2018-04-15T19:04:46.438Z,2.70
2018-04-15T19:07:12.546Z,3.23
2018-04-15T19:09:39.783Z,3.40
2018-04-15T19:12:05.986Z,3.20
2018-04-15T19:14:32.090Z,3.20
2018-04-15T19:17:00.517Z,4.23
2018-04-15T19:19:26.693Z,4.53
2018-04-15T19:22:07.441Z,4.50
2018-04-15T19:24:34.078Z,4.50
2018-04-15T19:27:07.273Z,5.83
2018-04-15T19:35:49.674Z,3.30
2018-04-15T19:38:25.038Z,4.13
2018-04-15T19:40:58.617Z,3.83
2018-04-15T19:43:26.821Z,3.43
2018-04-15T19:45:57.498Z,3.80
2018-04-15T19:48:29.468Z,3.90
2018-04-15T22:44:17.974Z,5.43
2018-04-15T22:46:44.255Z,5.00
2018-04-15T22:49:17.224Z,5.30
2018-04-15T22:51:44.127Z,4.83
2018-04-15T22:54:10.265Z,5.27
2018-04-15T22:56:42.350Z,5.20
2018-04-15T22:59:08.457Z,5.20
2018-04-15T23:01:34.601Z,4.97
2018-04-15T23:04:01.483Z,5.50
2018-04-15T23:06:27.591Z,5.77
2018-04-15T23:08:53.694Z,5.03
2018-04-15T23:11:19.817Z,5.17
2018-04-15T23:13:45.932Z,5.87
2018-04-15T23:16:12.129Z,5.27
2018-04-15T23:18:38.261Z,5.83
2018-04-15T23:21:04.442Z,5.70
2018-04-15T23:23:31.297Z,5.13
2018-04-15T23:25:58.152Z,4.83
2018-04-15T23:28:24.241Z,5.03
2018-04-15T23:30:50.374Z,5.10
2018-04-15T23:33:16.485Z,5.93
2018-04-15T23:35:42.612Z,5.20
2018-04-15T23:38:08.757Z,5.13
2018-04-15T23:40:34.878Z,6.10
2018-04-15T23:43:01.018Z,5.43
2018-04-15T23:45:27.139Z,5.20
2018-04-15T23:47:53.270Z,4.87
2018-04-15T23:50:20.149Z,5.77
2018-04-15T23:52:46.270Z,5.30
2018-04-15T23:55:12.388Z,4.93
2018-04-15T23:57:38.494Z,8.40
